Time;durP1;ratioP1;P1;durP2;ratioP2;P2;SDS_P1;SDS_P2;PMS_P1;PMS_P2;Temp;Humidity;BMP_temperature;BMP_pressure;BME280_temperature;BME280_humidity;BME280_pressure;Samples;Min_cycle;Max_cycle;Signal;HPM_P1;HPM_P2
2023/01/01 00:01:41;;;;;;;21.43;14.30;;;;;;;16.68;nan;99820.84;6152124;23;20173;-87
2023/01/01 00:04:11;;;;;;;10.80;7.40;;;;;;;16.72;nan;99813.47;6151632;23;20237;-89
2023/01/01 00:06:36;;;;;;;44.78;30.38;;;;;;;16.76;nan;99818.38;6151826;23;20401;-86
2023/01/01 00:11:46;;;;;;;4.95;3.35;;;;;;;16.84;nan;99817.75;6153971;23;20187;-87
2023/01/01 00:14:12;;;;;;;4.13;3.57;;;;;;;16.91;nan;99834.81;6152305;23;20366;-88
2023/01/01 00:16:37;;;;;;;6.20;3.40;;;;;;;16.93;nan;99824.91;6152730;23;20176;-86
2023/01/01 00:19:03;;;;;;;4.80;3.13;;;;;;;16.87;nan;99822.78;6153681;23;20180;-87
2023/01/01 00:21:28;;;;;;;4.57;3.40;;;;;;;16.87;nan;99829.91;6160527;23;20291;-86
2023/01/01 00:23:54;;;;;;;4.37;2.63;;;;;;;16.81;nan;99829.44;6156400;23;20232;-86
2023/01/01 00:26:19;;;;;;;3.03;2.40;;;;;;;16.77;nan;99821.91;6152500;23;20379;-87
2023/01/01 00:28:45;;;;;;;3.83;2.83;;;;;;;16.74;nan;99838.03;6152531;23;20538;-86
2023/01/01 00:31:13;;;;;;;5.83;2.50;;;;;;;16.69;nan;99843.75;6163016;23;20169;-86
2023/01/01 00:33:39;;;;;;;5.20;2.92;;;;;;;16.64;nan;99845.94;6161059;23;20172;-88
2023/01/01 00:36:15;;;;;;;3.20;2.80;;;;;;;16.58;nan;99847.31;6162107;23;20608;-87
2023/01/01 00:38:42;;;;;;;3.40;1.92;;;;;;;16.55;nan;99836.09;6164000;23;20195;-88
2023/01/01 00:41:07;;;;;;;3.88;2.88;;;;;;;16.55;nan;99834.31;6117103;23;20313;-86
2023/01/01 00:43:33;;;;;;;3.70;2.50;;;;;;;16.53;nan;99836.25;6134006;23;20174;-87
2023/01/01 00:45:58;;;;;;;3.07;2.30;;;;;;;16.51;nan;99832.88;6133845;23;20181;-86
2023/01/01 00:48:24;;;;;;;3.40;2.30;;;;;;;16.47;nan;99828.84;6133635;23;20206;-88
2023/01/01 00:50:51;;;;;;;2.63;2.43;;;;;;;16.45;nan;99832.59;6135053;23;20154;-87
2023/01/01 00:53:17;;;;;;;2.88;2.30;;;;;;;16.42;nan;99838.13;6130882;23;20195;-87
2023/01/01 00:55:45;;;;;;;2.95;1.85;;;;;;;16.38;nan;99840.19;6120957;23;20177;-86
2023/01/01 00:58:10;;;;;;;2.63;2.42;;;;;;;16.40;nan;99846.22;6094800;23;20219;-87
2023/01/01 01:00:37;;;;;;;1.80;1.63;;;;;;;16.38;nan;99848.16;6123362;23;20196;-86
2023/01/01 01:03:03;;;;;;;4.43;2.15;;;;;;;16.35;nan;99851.91;6120857;23;20210;-86
2023/01/01 01:05:29;;;;;;;3.85;2.47;;;;;;;16.35;nan;99856.38;6119491;23;20557;-86
2023/01/01 01:07:54;;;;;;;1.93;1.73;;;;;;;16.27;nan;99856.16;6120827;23;20195;-86
2023/01/01 01:10:21;;;;;;;2.73;2.20;;;;;;;16.22;nan;99861.00;6122421;23;20460;-87
2023/01/01 01:12:46;;;;;;;3.10;1.85;;;;;;;16.19;nan;99869.22;6107425;23;20208;-86
2023/01/01 01:15:14;;;;;;;2.60;2.10;;;;;;;16.12;nan;99871.50;6121645;23;20228;-87
2023/01/01 01:17:39;;;;;;;4.13;1.90;;;;;;;16.05;nan;99863.25;6122362;23;20417;-86
2023/01/01 01:20:06;;;;;;;4.00;2.20;;;;;;;16.02;nan;99868.78;6095535;23;20239;-86
2023/01/01 01:22:33;;;;;;;4.03;2.17;;;;;;;16.01;nan;99871.56;6096778;23;20243;-87
2023/01/01 01:24:58;;;;;;;1.70;1.45;;;;;;;15.99;nan;99869.06;6081599;23;20222;-85
2023/01/01 01:27:24;;;;;;;2.80;2.03;;;;;;;15.97;nan;99873.63;6121919;23;20296;-86
2023/01/01 01:29:49;;;;;;;2.70;1.90;;;;;;;15.99;nan;99873.50;6121977;23;20527;-87
2023/01/01 01:32:15;;;;;;;3.50;2.00;;;;;;;16.02;nan;99884.69;6122299;23;20174;-86
2023/01/01 01:34:40;;;;;;;2.07;1.87;;;;;;;16.04;nan;99885.41;6095362;23;20192;-85
2023/01/01 01:37:06;;;;;;;5.60;3.47;;;;;;;16.03;nan;99896.13;6121191;23;20188;-85
2023/01/01 01:39:31;;;;;;;5.77;3.93;;;;;;;16.00;nan;99891.09;6120301;23;20486;-86
2023/01/01 01:41:57;;;;;;;11.17;6.60;;;;;;;15.97;nan;99889.53;6121397;23;20182;-87
2023/01/01 01:44:44;;;;;;;7.40;5.53;;;;;;;15.95;nan;99890.63;6120184;23;20226;-85
2023/01/01 01:47:49;;;;;;;7.85;4.88;;;;;;;15.92;nan;99897.84;6121170;23;20686;-86
2023/01/01 01:50:26;;;;;;;3.90;3.35;;;;;;;15.88;nan;99892.94;6122748;23;20182;-85
2023/01/01 01:53:07;;;;;;;6.85;3.08;;;;;;;15.84;nan;99894.13;6122349;23;20635;-86
2023/01/01 01:55:36;;;;;;;4.43;2.78;;;;;;;15.79;nan;99893.66;6121181;23;20179;-85
2023/01/01 01:58:02;;;;;;;2.58;2.00;;;;;;;15.74;nan;99901.13;6118726;23;20227;-85
2023/01/01 02:00:28;;;;;;;3.05;2.05;;;;;;;15.69;nan;99901.53;6121410;23;20504;-85
2023/01/01 02:03:01;;;;;;;1.52;1.42;;;;;;;15.61;nan;99907.41;6119471;23;20557;-86
2023/01/01 02:05:28;;;;;;;1.92;1.73;;;;;;;15.58;nan;99906.78;6120976;23;20167;-85
2023/01/01 02:07:55;;;;;;;2.38;1.85;;;;;;;15.56;nan;99900.78;6134898;23;20187;-85
2023/01/01 02:10:20;;;;;;;2.88;2.00;;;;;;;15.52;nan;99894.03;6138246;23;20164;-86
2023/01/01 02:12:46;;;;;;;2.57;1.83;;;;;;;15.47;nan;99891.75;6137419;23;20251;-85
2023/01/01 02:15:12;;;;;;;2.00;1.70;;;;;;;15.44;nan;99900.78;6133845;23;20541;-85
2023/01/01 02:17:54;;;;;;;4.13;1.97;;;;;;;15.46;nan;99888.25;6128476;23;20412;-86
2023/01/01 02:20:28;;;;;;;3.67;2.17;;;;;;;15.43;nan;99890.31;6118705;23;20464;-87
2023/01/01 02:23:24;;;;;;;4.15;2.08;;;;;;;15.38;nan;99893.31;6118355;23;20192;-85
2023/01/01 02:25:55;;;;;;;2.88;1.80;;;;;;;15.36;nan;99891.75;6124820;23;20165;-85
2023/01/01 02:28:30;;;;;;;2.78;2.10;;;;;;;15.31;nan;99889.50;6122526;23;20706;-85
2023/01/01 02:30:56;;;;;;;2.70;1.75;;;;;;;15.28;nan;99892.38;6119956;23;20227;-86
2023/01/01 02:33:24;;;;;;;4.22;2.70;;;;;;;15.21;nan;99889.38;6120455;23;20494;-85
2023/01/01 02:35:55;;;;;;;2.40;2.20;;;;;;;15.14;nan;99882.88;6096137;23;20176;-86
2023/01/01 02:38:29;;;;;;;3.75;2.28;;;;;;;15.07;nan;99884.31;6119799;23;20256;-85
2023/01/01 02:41:09;;;;;;;2.20;1.75;;;;;;;15.00;nan;99886.59;6120240;23;20190;-85
2023/01/01 02:43:35;;;;;;;3.33;2.28;;;;;;;14.95;nan;99887.91;6094752;23;20187;-85
2023/01/01 02:46:05;;;;;;;3.80;2.30;;;;;;;14.91;nan;99883.84;6120476;23;20174;-86
2023/01/01 02:48:48;;;;;;;3.60;1.52;;;;;;;14.83;nan;99881.78;6120441;23;20234;-85
2023/01/01 02:51:33;;;;;;;9.27;2.38;;;;;;;14.77;nan;99885.72;6093453;23;20156;-86
2023/01/01 02:54:16;;;;;;;5.28;2.45;;;;;;;14.72;nan;99884.41;6080508;23;20308;-87
2023/01/01 02:57:11;;;;;;;4.30;2.45;;;;;;;14.67;nan;99878.63;6119441;23;20673;-86
2023/01/01 03:02:41;;;;;;;5.30;2.20;;;;;;;14.52;nan;99865.59;6120064;23;20625;-86
2023/01/01 03:05:17;;;;;;;2.60;2.40;;;;;;;14.51;nan;99857.75;6115175;23;20481;-85
2023/01/01 03:07:48;;;;;;;6.00;3.90;;;;;;;14.47;nan;99859.78;6117321;23;20450;-85
2023/01/01 03:10:19;;;;;;;6.25;2.00;;;;;;;14.45;nan;99874.94;6118841;23;20187;-85
2023/01/01 03:13:24;;;;;;;4.25;2.30;;;;;;;14.44;nan;99875.03;6120666;23;20183;-85
2023/01/01 03:15:58;;;;;;;2.88;1.80;;;;;;;14.44;nan;99873.22;6119326;23;20179;-86
2023/01/01 03:18:35;;;;;;;3.55;2.38;;;;;;;14.49;nan;99881.66;6119121;23;20199;-85
2023/01/01 03:21:04;;;;;;;3.92;2.25;;;;;;;14.57;nan;99879.31;6118856;23;20199;-86
2023/01/01 03:23:39;;;;;;;3.45;2.47;;;;;;;14.65;nan;99865.50;6118477;23;20195;-87
2023/01/01 03:26:09;;;;;;;2.65;1.65;;;;;;;14.79;nan;99861.78;6091698;23;20179;-85
2023/01/01 03:28:42;;;;;;;2.20;1.98;;;;;;;14.87;nan;99867.34;6119553;23;20721;-85
2023/01/01 03:31:09;;;;;;;4.15;3.13;;;;;;;14.93;nan;99868.66;6118864;23;20179;-85
2023/01/01 03:33:40;;;;;;;3.83;3.42;;;;;;;14.93;nan;99871.31;6118944;23;20198;-85
2023/01/01 03:36:13;;;;;;;3.50;2.78;;;;;;;14.91;nan;99863.50;6118246;23;20597;-86
2023/01/01 03:38:49;;;;;;;6.53;2.28;;;;;;;14.88;nan;99870.81;6110433;23;20229;-84
2023/01/01 03:41:36;;;;;;;5.22;2.63;;;;;;;14.83;nan;99863.25;6120889;23;20199;-84
2023/01/01 03:44:04;;;;;;;2.83;2.33;;;;;;;14.76;nan;99870.81;6120909;23;20230;-84
2023/01/01 03:46:32;;;;;;;7.13;3.60;;;;;;;14.73;nan;99873.69;6120609;23;20234;-84
2023/01/01 03:48:59;;;;;;;3.80;2.55;;;;;;;14.69;nan;99874.91;6098010;23;20200;-83
2023/01/01 03:51:46;;;;;;;4.63;3.03;;;;;;;14.65;nan;99883.19;6091706;23;20508;-85
2023/01/01 03:54:37;;;;;;;4.85;2.45;;;;;;;14.57;nan;99887.22;6096003;23;20248;-84
2023/01/01 03:57:22;;;;;;;4.35;2.58;;;;;;;14.52;nan;99881.44;6090586;23;20183;-84
2023/01/01 04:00:17;;;;;;;4.57;2.50;;;;;;;14.50;nan;99898.34;6092690;23;20174;-84
2023/01/01 04:02:49;;;;;;;4.63;3.33;;;;;;;14.46;nan;99894.28;6090900;23;20228;-84
2023/01/01 04:05:17;;;;;;;6.73;4.13;;;;;;;14.46;nan;99899.56;6089734;23;20425;-84
2023/01/01 04:07:43;;;;;;;5.13;3.50;;;;;;;14.39;nan;99899.16;6091384;23;20430;-84
2023/01/01 04:10:17;;;;;;;6.00;4.57;;;;;;;14.32;nan;99898.78;6091761;23;20218;-84
2023/01/01 04:12:51;;;;;;;4.55;2.97;;;;;;;14.26;nan;99901.06;6091934;23;20196;-84
2023/01/01 04:15:19;;;;;;;7.60;4.35;;;;;;;14.22;nan;99896.94;6092407;23;20292;-82
2023/01/01 04:17:44;;;;;;;5.35;3.13;;;;;;;14.17;nan;99898.09;6092974;23;20193;-83
2023/01/01 04:20:11;;;;;;;4.80;3.37;;;;;;;14.14;nan;99900.16;6114684;23;20619;-84
2023/01/01 04:22:36;;;;;;;2.72;2.38;;;;;;;14.12;nan;99899.41;6091094;23;20165;-84
2023/01/01 04:25:02;;;;;;;2.73;2.33;;;;;;;14.09;nan;99902.28;6091991;23;20183;-84
2023/01/01 04:27:27;;;;;;;4.80;2.40;;;;;;;14.07;nan;99891.84;6093526;23;20179;-83
2023/01/01 04:29:53;;;;;;;4.47;2.90;;;;;;;14.08;nan;99887.41;6093293;23;20190;-83
2023/01/01 04:32:18;;;;;;;2.70;2.10;;;;;;;14.08;nan;99887.41;6093944;23;20174;-84
2023/01/01 04:34:44;;;;;;;2.50;2.13;;;;;;;14.07;nan;99880.41;6093926;23;20170;-83
2023/01/01 04:37:09;;;;;;;3.70;2.13;;;;;;;14.08;nan;99885.59;6098075;23;20173;-83
2023/01/01 04:39:34;;;;;;;2.00;1.80;;;;;;;14.10;nan;99880.22;6096478;23;20232;-83
2023/01/01 04:42:00;;;;;;;2.53;1.80;;;;;;;14.12;nan;99884.44;6092552;23;20174;-83
2023/01/01 04:44:25;;;;;;;2.03;1.80;;;;;;;14.14;nan;99885.13;6068682;23;20380;-83
2023/01/01 04:46:50;;;;;;;2.17;1.90;;;;;;;14.13;nan;99890.53;6093048;23;20198;-83
2023/01/01 04:49:16;;;;;;;4.30;2.33;;;;;;;14.11;nan;99881.88;6092394;23;20171;-84
2023/01/01 04:51:45;;;;;;;2.07;1.87;;;;;;;14.11;nan;99892.44;6095683;23;20192;-84
2023/01/01 04:54:10;;;;;;;3.67;1.85;;;;;;;14.13;nan;99887.91;6095155;23;20174;-84
2023/01/01 04:56:35;;;;;;;2.93;1.60;;;;;;;14.15;nan;99880.72;6094586;23;20179;-84
2023/01/01 04:59:01;;;;;;;2.00;1.80;;;;;;;14.18;nan;99885.78;6096035;23;20273;-84
2023/01/01 05:01:28;;;;;;;2.03;1.50;;;;;;;14.20;nan;99890.91;6069801;23;20158;-84
2023/01/01 05:03:54;;;;;;;2.90;1.67;;;;;;;14.21;nan;99887.34;6093817;23;20162;-85
2023/01/01 05:06:20;;;;;;;6.88;2.08;;;;;;;14.21;nan;99893.47;6092941;23;20164;-83
2023/01/01 05:08:48;;;;;;;2.28;1.50;;;;;;;14.20;nan;99885.63;6101094;23;20216;-83
2023/01/01 05:11:15;;;;;;;2.17;1.40;;;;;;;14.17;nan;99892.81;6094018;23;20638;-83
2023/01/01 05:13:42;;;;;;;2.80;1.85;;;;;;;14.17;nan;99894.63;6110096;23;20245;-83
2023/01/01 05:16:11;;;;;;;2.40;1.85;;;;;;;14.16;nan;99900.88;6109142;23;20190;-83
2023/01/01 05:18:37;;;;;;;2.97;1.40;;;;;;;14.14;nan;99903.63;6109248;23;20193;-84
2023/01/01 05:21:10;;;;;;;2.33;1.75;;;;;;;14.11;nan;99903.84;6109464;23;20174;-84
2023/01/01 05:23:36;;;;;;;2.60;2.03;;;;;;;14.08;nan;99908.53;6103768;23;20233;-84
2023/01/01 05:26:19;;;;;;;3.20;1.75;;;;;;;14.05;nan;99901.66;6078506;23;20479;-83
2023/01/01 05:28:48;;;;;;;2.17;1.80;;;;;;;14.03;nan;99902.75;6108126;23;20406;-83
2023/01/01 05:31:16;;;;;;;2.43;1.60;;;;;;;14.02;nan;99903.72;6069149;23;20705;-84
2023/01/01 05:33:42;;;;;;;4.20;2.47;;;;;;;14.00;nan;99910.88;6093360;23;20408;-84
2023/01/01 05:36:15;;;;;;;3.00;2.20;;;;;;;13.97;nan;99919.88;6094147;23;20175;-84
2023/01/01 05:38:41;;;;;;;2.55;2.03;;;;;;;13.95;nan;99917.34;6092978;23;20809;-84
2023/01/01 05:41:08;;;;;;;2.60;1.90;;;;;;;13.94;nan;99920.94;6053219;23;20269;-85
2023/01/01 05:43:34;;;;;;;6.05;2.40;;;;;;;13.91;nan;99920.34;6064204;23;20175;-85
2023/01/01 05:46:01;;;;;;;3.90;3.60;;;;;;;13.87;nan;99917.03;6063480;23;20251;-85
2023/01/01 05:48:27;;;;;;;5.75;2.92;;;;;;;13.84;nan;99929.63;6064014;23;20223;-85
2023/01/01 05:50:52;;;;;;;9.17;5.90;;;;;;;13.78;nan;99932.72;6064927;23;20201;-85
2023/01/01 05:53:17;;;;;;;12.20;6.20;;;;;;;13.71;nan;99922.59;6037796;23;20240;-85
2023/01/01 05:55:43;;;;;;;11.47;5.43;;;;;;;13.67;nan;99930.84;6065320;23;20169;-85
2023/01/01 05:58:08;;;;;;;7.70;5.57;;;;;;;13.62;nan;99930.34;6063790;23;20177;-85
2023/01/01 06:00:34;;;;;;;9.37;4.60;;;;;;;13.57;nan;99930.66;6064631;23;20150;-85
2023/01/01 06:02:59;;;;;;;5.17;3.47;;;;;;;13.50;nan;99935.53;6065494;23;20235;-85
2023/01/01 06:05:24;;;;;;;6.33;3.77;;;;;;;13.45;nan;99939.44;6065043;23;20580;-85
2023/01/01 06:07:50;;;;;;;3.80;2.77;;;;;;;13.41;nan;99937.97;6065251;23;20201;-85
2023/01/01 06:10:15;;;;;;;6.03;3.20;;;;;;;13.37;nan;99933.88;6083194;23;20219;-85
2023/01/01 06:12:41;;;;;;;6.53;2.93;;;;;;;13.33;nan;99938.50;6083513;23;20198;-83
2023/01/01 06:15:07;;;;;;;6.07;3.37;;;;;;;13.30;nan;99933.44;6086167;23;20350;-83
2023/01/01 06:17:33;;;;;;;7.05;2.70;;;;;;;13.26;nan;99943.38;6073112;23;20218;-84
2023/01/01 06:19:58;;;;;;;3.07;2.67;;;;;;;13.21;nan;99940.16;6038330;23;20654;-84
2023/01/01 06:22:24;;;;;;;3.30;2.43;;;;;;;13.17;nan;99938.69;6054140;23;20622;-83
2023/01/01 06:24:49;;;;;;;5.97;3.87;;;;;;;13.10;nan;99940.06;6096478;23;20666;-84
2023/01/01 06:27:14;;;;;;;5.70;3.07;;;;;;;13.02;nan;99939.75;6093579;23;20162;-84
2023/01/01 06:29:40;;;;;;;7.53;4.60;;;;;;;12.90;nan;99948.50;6103522;23;20144;-84
2023/01/01 06:32:05;;;;;;;12.57;7.00;;;;;;;12.79;nan;99951.84;6114287;23;20170;-84
2023/01/01 06:34:30;;;;;;;11.53;7.70;;;;;;;12.71;nan;99944.44;6114312;23;20459;-84
2023/01/01 06:36:56;;;;;;;20.50;10.53;;;;;;;12.59;nan;99950.56;6114303;23;20226;-83
2023/01/01 06:39:21;;;;;;;22.33;10.90;;;;;;;12.48;nan;99956.53;6112801;23;20258;-84
2023/01/01 06:41:46;;;;;;;31.07;14.40;;;;;;;12.38;nan;99950.19;6069666;23;20184;-83
2023/01/01 06:44:12;;;;;;;23.20;11.30;;;;;;;12.31;nan;99960.28;6095253;23;20354;-83
2023/01/01 06:46:40;;;;;;;19.40;13.03;;;;;;;12.23;nan;99945.91;6095777;23;20215;-84
2023/01/01 06:49:10;;;;;;;9.93;5.82;;;;;;;12.12;nan;99950.09;6095004;23;20196;-83
2023/01/01 06:51:38;;;;;;;6.90;4.90;;;;;;;12.02;nan;99946.38;6094271;23;20206;-83
2023/01/01 06:54:05;;;;;;;6.05;4.57;;;;;;;11.88;nan;99925.31;6095173;23;20210;-83
2023/01/01 06:56:31;;;;;;;5.28;4.30;;;;;;;11.81;nan;99935.38;6094497;23;20173;-83
2023/01/01 06:58:57;;;;;;;6.13;4.03;;;;;;;11.78;nan;99950.53;6096971;23;20200;-83
2023/01/01 07:01:25;;;;;;;7.37;5.47;;;;;;;11.73;nan;99941.13;6099521;23;20175;-83
2023/01/01 07:03:59;;;;;;;10.85;6.63;;;;;;;11.71;nan;99942.16;6098921;23;20396;-83
2023/01/01 07:06:26;;;;;;;10.13;6.28;;;;;;;11.67;nan;99945.94;6100235;23;20229;-83
2023/01/01 07:08:52;;;;;;;9.30;6.22;;;;;;;11.66;nan;99944.22;6100397;23;20669;-83
2023/01/01 07:11:18;;;;;;;7.93;5.60;;;;;;;11.65;nan;99945.19;6100817;23;20207;-83
2023/01/01 07:13:43;;;;;;;6.30;4.88;;;;;;;11.68;nan;99945.81;6099887;23;20186;-83
2023/01/01 07:16:09;;;;;;;7.17;4.70;;;;;;;11.76;nan;99955.03;6098015;23;20266;-83
2023/01/01 07:18:35;;;;;;;5.20;3.50;;;;;;;11.85;nan;99957.91;6098497;23;20430;-83
2023/01/01 07:21:06;;;;;;;4.43;2.97;;;;;;;11.99;nan;99962.38;6100565;23;20535;-84
2023/01/01 07:23:34;;;;;;;6.25;3.30;;;;;;;12.10;nan;99946.72;6098998;23;20172;-83
2023/01/01 07:25:59;;;;;;;5.90;3.50;;;;;;;12.30;nan;99952.47;6099496;23;20186;-83
2023/01/01 07:28:25;;;;;;;3.93;3.00;;;;;;;12.48;nan;99950.44;6099659;23;20202;-83
2023/01/01 07:30:53;;;;;;;6.05;2.58;;;;;;;12.61;nan;99946.88;6098880;23;20207;-83
2023/01/01 07:33:20;;;;;;;4.85;2.97;;;;;;;12.79;nan;99943.94;6100928;23;20234;-82
2023/01/01 07:35:46;;;;;;;8.07;3.13;;;;;;;12.94;nan;99947.34;6099337;23;20176;-83
2023/01/01 07:38:13;;;;;;;4.15;2.85;;;;;;;13.07;nan;99942.94;6093188;23;20204;-83
2023/01/01 07:40:39;;;;;;;2.97;2.53;;;;;;;13.18;nan;99948.31;6093021;23;20181;-83
2023/01/01 07:43:05;;;;;;;5.43;2.35;;;;;;;13.30;nan;99964.25;6093177;23;20236;-83
2023/01/01 07:45:31;;;;;;;5.90;2.50;;;;;;;13.39;nan;99963.59;6093202;23;20694;-83
2023/01/01 07:47:58;;;;;;;2.95;2.22;;;;;;;13.48;nan;99970.91;6095004;23;20196;-83
2023/01/01 07:50:25;;;;;;;2.97;2.20;;;;;;;13.56;nan;99970.38;6092356;23;20209;-83
2023/01/01 07:52:51;;;;;;;4.00;3.25;;;;;;;13.62;nan;99975.22;6093476;23;20172;-83
2023/01/01 07:55:20;;;;;;;4.20;3.40;;;;;;;13.64;nan;99970.69;6094844;23;20199;-83
2023/01/01 07:57:47;;;;;;;4.90;3.45;;;;;;;13.65;nan;99985.53;6092994;23;20238;-83
2023/01/01 08:00:18;;;;;;;4.63;3.70;;;;;;;13.62;nan;99993.69;6093543;23;20169;-83
2023/01/01 08:02:44;;;;;;;7.60;4.30;;;;;;;13.40;nan;100000.47;6092884;23;20186;-83
2023/01/01 08:05:09;;;;;;;4.97;3.40;;;;;;;12.98;nan;99999.75;6093075;23;20260;-83
2023/01/01 08:07:35;;;;;;;4.83;3.60;;;;;;;12.80;nan;100008.91;6095264;23;20424;-83
2023/01/01 08:10:02;;;;;;;6.60;4.20;;;;;;;12.54;nan;100011.47;6092638;23;20198;-83
2023/01/01 08:12:28;;;;;;;6.60;3.25;;;;;;;12.23;nan;100003.84;6094055;23;20184;-83
2023/01/01 08:14:53;;;;;;;5.50;4.30;;;;;;;12.09;nan;100013.47;6094231;23;20179;-83
2023/01/01 08:17:18;;;;;;;5.80;4.10;;;;;;;12.10;nan;100006.44;6093737;23;20271;-83
2023/01/01 08:19:45;;;;;;;5.27;3.80;;;;;;;12.15;nan;100010.47;6080268;23;20212;-83
2023/01/01 08:22:11;;;;;;;5.93;3.90;;;;;;;12.24;nan;100022.19;6093124;23;20206;-83
2023/01/01 08:24:37;;;;;;;3.43;2.80;;;;;;;12.29;nan;100024.53;6092738;23;20195;-83
2023/01/01 08:27:02;;;;;;;4.73;3.50;;;;;;;12.34;nan;100028.56;6093215;23;20419;-83
2023/01/01 08:29:28;;;;;;;3.53;2.90;;;;;;;12.37;nan;100025.75;6096619;23;20417;-83
2023/01/01 08:31:53;;;;;;;3.43;3.13;;;;;;;12.40;nan;100028.16;6091874;23;20716;-83
2023/01/01 08:34:18;;;;;;;4.43;3.93;;;;;;;12.43;nan;100035.03;6092237;23;20172;-83
2023/01/01 08:36:44;;;;;;;6.13;3.70;;;;;;;12.47;nan;100028.59;6093398;23;20231;-83
2023/01/01 08:39:10;;;;;;;6.00;3.80;;;;;;;12.55;nan;100028.13;6089857;23;20242;-83
2023/01/01 08:41:36;;;;;;;2.80;2.60;;;;;;;12.67;nan;100019.41;6091979;23;20168;-83
2023/01/01 08:44:01;;;;;;;3.03;2.53;;;;;;;12.79;nan;100023.88;6095233;23;20212;-82
2023/01/01 08:46:27;;;;;;;5.70;3.33;;;;;;;12.93;nan;100019.47;6093013;23;20211;-83
2023/01/01 08:48:52;;;;;;;2.73;2.50;;;;;;;13.08;nan;100018.44;6092694;23;20497;-83
2023/01/01 08:51:18;;;;;;;3.00;2.60;;;;;;;13.22;nan;100014.88;6093001;23;20573;-82
2023/01/01 08:53:44;;;;;;;4.27;3.10;;;;;;;13.36;nan;100020.06;6094345;23;20171;-83
2023/01/01 08:56:10;;;;;;;5.53;2.93;;;;;;;13.54;nan;100025.88;6095789;23;20234;-83
2023/01/01 08:58:38;;;;;;;3.92;2.95;;;;;;;13.78;nan;100023.34;6095276;23;20429;-83
2023/01/01 09:01:03;;;;;;;6.10;3.03;;;;;;;14.00;nan;100019.19;6093484;23;20556;-83
2023/01/01 09:03:29;;;;;;;3.70;3.00;;;;;;;14.23;nan;100022.78;6094042;23;20168;-83
2023/01/01 09:05:55;;;;;;;6.97;3.30;;;;;;;14.51;nan;100032.22;6093812;23;20496;-83
2023/01/01 09:08:21;;;;;;;5.85;3.38;;;;;;;14.79;nan;100031.03;6092553;23;20517;-83
2023/01/01 09:10:47;;;;;;;3.33;2.78;;;;;;;15.07;nan;100031.63;6093620;23;20208;-83
2023/01/01 09:13:15;;;;;;;5.13;2.75;;;;;;;15.36;nan;100019.66;6095145;23;20168;-83
2023/01/01 09:15:42;;;;;;;7.65;3.47;;;;;;;15.61;nan;100020.41;6096144;23;20161;-84
2023/01/01 09:18:08;;;;;;;3.83;2.40;;;;;;;15.77;nan;100012.13;6090561;23;20199;-85
2023/01/01 09:20:34;;;;;;;2.90;2.60;;;;;;;15.97;nan;100015.88;6087450;23;20516;-85
2023/01/01 09:22:59;;;;;;;5.37;2.57;;;;;;;16.15;nan;100017.88;6091463;23;20164;-85
2023/01/01 09:25:25;;;;;;;4.30;3.00;;;;;;;16.24;nan;100005.69;6091355;23;20459;-85
2023/01/01 09:27:59;;;;;;;4.13;2.70;;;;;;;16.23;nan;100005.81;6091245;23;20446;-85
2023/01/01 09:30:25;;;;;;;4.30;2.90;;;;;;;16.18;nan;100008.84;6090867;23;20215;-85
2023/01/01 09:32:50;;;;;;;4.47;2.93;;;;;;;16.18;nan;100014.16;6091402;23;20497;-85
2023/01/01 09:35:16;;;;;;;4.20;3.20;;;;;;;16.38;nan;100007.22;6090528;23;20399;-85
2023/01/01 09:37:41;;;;;;;5.90;2.70;;;;;;;16.43;nan;100009.50;6093372;23;20181;-85
2023/01/01 09:40:26;;;;;;;4.90;2.50;;;;;;;16.45;nan;100011.06;6119992;23;20156;-85
2023/01/01 09:43:19;;;;;;;2.92;2.03;;;;;;;16.59;nan;100018.72;6122229;23;20681;-85
2023/01/01 09:45:56;;;;;;;3.80;2.78;;;;;;;16.88;nan;100012.84;6046474;23;20206;-85
2023/01/01 09:48:24;;;;;;;2.40;1.80;;;;;;;17.02;nan;100012.53;6123097;23;20303;-85
2023/01/01 09:50:50;;;;;;;5.90;2.33;;;;;;;17.12;nan;100006.44;6122914;23;20631;-85
2023/01/01 09:53:31;;;;;;;3.23;2.10;;;;;;;17.29;nan;100005.88;6124645;23;20156;-85
2023/01/01 09:56:01;;;;;;;4.65;2.20;;;;;;;17.46;nan;99999.94;6125577;23;20164;-85
2023/01/01 09:58:32;;;;;;;2.95;2.28;;;;;;;17.78;nan;100006.94;6128006;23;20249;-85
2023/01/01 10:01:09;;;;;;;7.22;2.90;;;;;;;18.34;nan;100001.09;6126240;23;20158;-85
2023/01/01 10:04:22;;;;;;;3.45;2.00;;;;;;;19.35;nan;100001.63;6122725;23;20159;-85
2023/01/01 10:07:25;;;;;;;4.55;2.15;;;;;;;20.34;nan;99993.88;6100899;23;20243;-85
2023/01/01 10:09:56;;;;;;;5.07;1.95;;;;;;;;;;6120337;23;20183;-87
2023/01/01 10:12:29;;;;;;;1.95;1.70;;;;;;;;;;6120650;23;20194;-85
2023/01/01 10:15:00;;;;;;;3.22;1.70;;;;;;;;;;6095921;23;20171;-86
2023/01/01 10:17:35;;;;;;;3.10;1.60;;;;;;;21.99;nan;99985.22;6121518;23;20474;-85
2023/01/01 10:20:16;;;;;;;4.40;1.58;;;;;;;21.66;nan;99987.75;6120886;23;20406;-85
2023/01/01 10:22:45;;;;;;;2.33;1.40;;;;;;;21.25;nan;99981.28;6121085;23;20183;-86
2023/01/01 10:25:19;;;;;;;3.37;2.17;;;;;;;20.87;nan;99973.50;6070789;23;20387;-85
2023/01/01 10:27:49;;;;;;;4.47;1.90;;;;;;;20.55;nan;99972.28;6120555;23;20403;-85
2023/01/01 10:30:22;;;;;;;2.33;1.77;;;;;;;20.17;nan;99970.69;6119482;23;21017;-85
2023/01/01 10:32:50;;;;;;;2.80;1.70;;;;;;;19.88;nan;99970.88;6120973;23;20383;-85
2023/01/01 10:35:19;;;;;;;5.27;2.20;;;;;;;19.58;nan;99964.81;6120018;23;20614;-85
2023/01/01 10:37:45;;;;;;;5.03;2.60;;;;;;;19.41;nan;99965.56;6120563;23;20413;-86
2023/01/01 10:40:22;;;;;;;5.50;2.07;;;;;;;19.30;nan;99977.22;6120204;23;20638;-86
2023/01/01 10:42:51;;;;;;;4.80;2.00;;;;;;;19.23;nan;99973.47;6119152;23;20163;-85
2023/01/01 10:45:32;;;;;;;5.03;2.50;;;;;;;19.09;nan;99977.44;6120315;23;20394;-86
2023/01/01 10:48:21;;;;;;;4.23;2.23;;;;;;;18.96;nan;99971.59;6120930;23;20412;-85
2023/01/01 10:50:55;;;;;;;8.23;2.53;;;;;;;18.87;nan;99975.06;6120651;23;20762;-85
2023/01/01 10:53:27;;;;;;;5.03;3.07;;;;;;;18.81;nan;99965.84;6120214;23;20386;-85
2023/01/01 10:56:14;;;;;;;5.87;2.60;;;;;;;18.75;nan;99961.09;6120323;23;20487;-86
2023/01/01 10:58:51;;;;;;;5.53;2.10;;;;;;;18.73;nan;99947.88;6120429;23;20742;-85
2023/01/01 11:01:16;;;;;;;3.10;1.80;;;;;;;18.73;nan;99939.91;6124341;23;20402;-85
2023/01/01 11:03:53;;;;;;;2.13;2.00;;;;;;;18.72;nan;99946.22;6122013;23;20380;-85
2023/01/01 11:06:22;;;;;;;3.67;1.90;;;;;;;18.70;nan;99950.84;6119999;23;20186;-85
2023/01/01 11:08:53;;;;;;;2.03;1.73;;;;;;;18.70;nan;99945.50;6120553;23;20926;-85
2023/01/01 11:11:27;;;;;;;2.57;2.37;;;;;;;18.71;nan;99933.03;6118014;23;20427;-85
2023/01/01 11:13:55;;;;;;;2.07;1.70;;;;;;;18.69;nan;99930.53;6118979;23;20391;-86
2023/01/01 11:16:21;;;;;;;2.20;1.80;;;;;;;18.68;nan;99928.84;6117975;23;20398;-85
2023/01/01 11:18:49;;;;;;;2.90;1.87;;;;;;;18.67;nan;99929.84;6119964;23;20751;-85
2023/01/01 11:21:22;;;;;;;4.27;1.70;;;;;;;18.66;nan;99920.19;6120051;23;20391;-86
2023/01/01 11:23:51;;;;;;;4.83;2.50;;;;;;;18.65;nan;99912.31;6120420;23;20390;-85
2023/01/01 11:26:16;;;;;;;2.83;2.00;;;;;;;18.67;nan;99913.03;6120033;23;20875;-85
2023/01/01 11:28:57;;;;;;;2.23;1.90;;;;;;;18.68;nan;99904.06;6118634;23;20416;-85
2023/01/01 11:31:27;;;;;;;3.20;1.80;;;;;;;18.70;nan;99902.94;6120222;23;20273;-85
2023/01/01 11:33:55;;;;;;;3.70;1.57;;;;;;;18.72;nan;99890.34;6119657;23;20403;-86
2023/01/01 11:36:32;;;;;;;3.53;2.13;;;;;;;18.74;nan;99879.53;6120509;23;20387;-85
2023/01/01 11:39:19;;;;;;;3.13;1.80;;;;;;;18.76;nan;99878.44;6118518;23;20435;-85
2023/01/01 11:41:47;;;;;;;3.30;2.37;;;;;;;18.80;nan;99879.00;6121865;23;20399;-85
2023/01/01 11:44:28;;;;;;;3.37;2.50;;;;;;;18.85;nan;99868.78;6122130;23;20479;-86
2023/01/01 11:46:53;;;;;;;3.00;2.10;;;;;;;18.87;nan;99861.47;6122678;23;20391;-86
2023/01/01 11:49:25;;;;;;;4.87;3.37;;;;;;;18.91;nan;99854.03;6121398;23;20411;-86
2023/01/01 11:51:51;;;;;;;4.57;3.00;;;;;;;18.96;nan;99857.13;6123127;23;20587;-86
2023/01/01 11:54:29;;;;;;;5.17;2.20;;;;;;;19.05;nan;99853.56;6123246;23;20376;-86
2023/01/01 11:57:05;;;;;;;3.73;2.17;;;;;;;19.11;nan;99839.66;6124732;23;20158;-86
2023/01/01 11:59:42;;;;;;;6.23;3.37;;;;;;;19.16;nan;99837.41;6123835;23;20418;-86
2023/01/01 12:02:14;;;;;;;3.57;2.10;;;;;;;19.19;nan;99837.09;6129252;23;20380;-85
2023/01/01 12:04:47;;;;;;;5.17;1.90;;;;;;;19.26;nan;99831.22;6125414;23;20383;-85
2023/01/01 12:07:22;;;;;;;3.60;1.67;;;;;;;19.33;nan;99826.94;6121463;23;20380;-86